sensor_id;sensor_type;location;lat;lon;timestamp;P1;P2;P0
49708;PMS5003;35601;55.902;13.606;2023-06-24T00:02:05;12;10;
49708;PMS5003;35601;55.902;13.606;2023-06-24T00:04:30;10;10;
49708;PMS5003;35601;55.902;13.606;2023-06-24T00:06:54;10;10;
49708;PMS5003;35601;55.902;13.606;2023-06-24T00:09:19;8;8;
49708;PMS5003;35601;55.902;13.606;2023-06-24T00:11:46;11;11;
49708;PMS5003;35601;55.902;13.606;2023-06-24T00:14:10;10;9;
49708;PMS5003;35601;55.902;13.606;2023-06-24T00:16:35;11;11;
49708;PMS5003;35601;55.902;13.606;2023-06-24T00:19:01;14;12;
49708;PMS5003;35601;55.902;13.606;2023-06-24T00:21:26;11;10;
49708;PMS5003;35601;55.902;13.606;2023-06-24T00:23:53;11;11;
49708;PMS5003;35601;55.902;13.606;2023-06-24T00:26:17;11;10;
49708;PMS5003;35601;55.902;13.606;2023-06-24T00:28:43;11;10;
49708;PMS5003;35601;55.902;13.606;2023-06-24T00:31:08;18;17;
49708;PMS5003;35601;55.902;13.606;2023-06-24T00:33:34;12;11;
49708;PMS5003;35601;55.902;13.606;2023-06-24T00:35:59;13;13;
49708;PMS5003;35601;55.902;13.606;2023-06-24T00:38:26;14;9;
49708;PMS5003;35601;55.902;13.606;2023-06-24T00:40:51;11;11;
49708;PMS5003;35601;55.902;13.606;2023-06-24T00:43:17;11;10;
49708;PMS5003;35601;55.902;13.606;2023-06-24T00:45:42;10;10;
49708;PMS5003;35601;55.902;13.606;2023-06-24T00:48:08;16;14;
49708;PMS5003;35601;55.902;13.606;2023-06-24T00:50:35;11;11;
49708;PMS5003;35601;55.902;13.606;2023-06-24T00:52:59;13;10;
49708;PMS5003;35601;55.902;13.606;2023-06-24T00:55:25;11;9;
49708;PMS5003;35601;55.902;13.606;2023-06-24T00:57:51;12;10;
49708;PMS5003;35601;55.902;13.606;2023-06-24T01:00:16;17;15;
49708;PMS5003;35601;55.902;13.606;2023-06-24T01:02:41;13;13;
49708;PMS5003;35601;55.902;13.606;2023-06-24T01:05:07;14;12;
49708;PMS5003;35601;55.902;13.606;2023-06-24T01:07:34;16;15;
49708;PMS5003;35601;55.902;13.606;2023-06-24T01:09:59;13;12;
49708;PMS5003;35601;55.902;13.606;2023-06-24T01:12:24;14;14;
49708;PMS5003;35601;55.902;13.606;2023-06-24T01:14:50;11;11;
49708;PMS5003;35601;55.902;13.606;2023-06-24T01:17:19;9;9;
49708;PMS5003;35601;55.902;13.606;2023-06-24T01:19:48;12;12;
49708;PMS5003;35601;55.902;13.606;2023-06-24T01:22:07;13;11;
49708;PMS5003;35601;55.902;13.606;2023-06-24T01:24:33;12;12;
49708;PMS5003;35601;55.902;13.606;2023-06-24T01:27:03;10;10;
49708;PMS5003;35601;55.902;13.606;2023-06-24T01:31:47;12;11;
49708;PMS5003;35601;55.902;13.606;2023-06-24T01:34:16;11;11;
49708;PMS5003;35601;55.902;13.606;2023-06-24T01:36:40;13;11;
49708;PMS5003;35601;55.902;13.606;2023-06-24T01:39:05;14;13;
49708;PMS5003;35601;55.902;13.606;2023-06-24T01:41:31;13;13;
49708;PMS5003;35601;55.902;13.606;2023-06-24T01:43:54;12;11;
49708;PMS5003;35601;55.902;13.606;2023-06-24T01:46:22;15;15;
49708;PMS5003;35601;55.902;13.606;2023-06-24T01:48:47;12;10;
49708;PMS5003;35601;55.902;13.606;2023-06-24T01:51:13;14;12;
49708;PMS5003;35601;55.902;13.606;2023-06-24T01:53:36;14;11;
49708;PMS5003;35601;55.902;13.606;2023-06-24T01:56:01;10;10;
49708;PMS5003;35601;55.902;13.606;2023-06-24T01:58:27;12;11;
49708;PMS5003;35601;55.902;13.606;2023-06-24T02:00:53;14;11;
49708;PMS5003;35601;55.902;13.606;2023-06-24T02:03:20;15;14;
49708;PMS5003;35601;55.902;13.606;2023-06-24T02:05:45;11;11;
49708;PMS5003;35601;55.902;13.606;2023-06-24T02:08:10;16;14;
49708;PMS5003;35601;55.902;13.606;2023-06-24T02:10:35;14;14;
49708;PMS5003;35601;55.902;13.606;2023-06-24T02:13:01;18;18;
49708;PMS5003;35601;55.902;13.606;2023-06-24T02:15:26;18;12;
49708;PMS5003;35601;55.902;13.606;2023-06-24T02:17:51;17;16;
49708;PMS5003;35601;55.902;13.606;2023-06-24T02:20:19;17;15;
49708;PMS5003;35601;55.902;13.606;2023-06-24T02:22:42;16;14;
49708;PMS5003;35601;55.902;13.606;2023-06-24T02:25:08;15;14;
49708;PMS5003;35601;55.902;13.606;2023-06-24T02:27:33;16;15;
49708;PMS5003;35601;55.902;13.606;2023-06-24T02:29:58;14;13;
49708;PMS5003;35601;55.902;13.606;2023-06-24T02:32:24;16;15;
49708;PMS5003;35601;55.902;13.606;2023-06-24T02:34:49;17;15;
49708;PMS5003;35601;55.902;13.606;2023-06-24T02:37:14;15;14;
49708;PMS5003;35601;55.902;13.606;2023-06-24T02:39:40;14;14;
49708;PMS5003;35601;55.902;13.606;2023-06-24T02:42:06;12;11;
49708;PMS5003;35601;55.902;13.606;2023-06-24T02:44:31;19;19;
49708;PMS5003;35601;55.902;13.606;2023-06-24T02:46:56;12;11;
49708;PMS5003;35601;55.902;13.606;2023-06-24T02:49:22;13;13;
49708;PMS5003;35601;55.902;13.606;2023-06-24T02:51:48;15;15;
49708;PMS5003;35601;55.902;13.606;2023-06-24T02:54:13;21;18;
49708;PMS5003;35601;55.902;13.606;2023-06-24T02:56:38;15;12;
49708;PMS5003;35601;55.902;13.606;2023-06-24T02:59:03;14;13;
49708;PMS5003;35601;55.902;13.606;2023-06-24T03:01:30;14;13;
49708;PMS5003;35601;55.902;13.606;2023-06-24T03:03:54;14;14;
49708;PMS5003;35601;55.902;13.606;2023-06-24T03:06:19;16;15;
49708;PMS5003;35601;55.902;13.606;2023-06-24T03:08:45;14;12;
49708;PMS5003;35601;55.902;13.606;2023-06-24T03:11:12;13;13;
49708;PMS5003;35601;55.902;13.606;2023-06-24T03:13:35;12;11;
49708;PMS5003;35601;55.902;13.606;2023-06-24T03:16:01;14;13;
49708;PMS5003;35601;55.902;13.606;2023-06-24T03:18:26;14;13;
49708;PMS5003;35601;55.902;13.606;2023-06-24T03:20:51;12;12;
49708;PMS5003;35601;55.902;13.606;2023-06-24T03:23:17;16;14;
49708;PMS5003;35601;55.902;13.606;2023-06-24T03:25:43;17;16;
49708;PMS5003;35601;55.902;13.606;2023-06-24T03:28:08;16;14;
49708;PMS5003;35601;55.902;13.606;2023-06-24T03:30:34;14;14;
49708;PMS5003;35601;55.902;13.606;2023-06-24T03:32:59;17;17;
49708;PMS5003;35601;55.902;13.606;2023-06-24T03:35:25;16;15;
49708;PMS5003;35601;55.902;13.606;2023-06-24T03:37:51;14;13;
49708;PMS5003;35601;55.902;13.606;2023-06-24T03:40:17;13;11;
49708;PMS5003;35601;55.902;13.606;2023-06-24T03:42:42;13;13;
49708;PMS5003;35601;55.902;13.606;2023-06-24T03:45:08;16;16;
49708;PMS5003;35601;55.902;13.606;2023-06-24T03:47:34;12;12;
49708;PMS5003;35601;55.902;13.606;2023-06-24T03:49:59;12;12;
49708;PMS5003;35601;55.902;13.606;2023-06-24T03:52:25;13;13;
49708;PMS5003;35601;55.902;13.606;2023-06-24T03:54:50;12;12;
49708;PMS5003;35601;55.902;13.606;2023-06-24T03:57:16;12;11;
49708;PMS5003;35601;55.902;13.606;2023-06-24T03:59:41;13;13;
49708;PMS5003;35601;55.902;13.606;2023-06-24T04:02:07;13;11;
49708;PMS5003;35601;55.902;13.606;2023-06-24T04:04:32;15;15;
49708;PMS5003;35601;55.902;13.606;2023-06-24T04:06:58;14;14;
49708;PMS5003;35601;55.902;13.606;2023-06-24T04:09:23;18;16;
49708;PMS5003;35601;55.902;13.606;2023-06-24T04:11:48;13;11;
49708;PMS5003;35601;55.902;13.606;2023-06-24T04:14:13;14;13;
49708;PMS5003;35601;55.902;13.606;2023-06-24T04:16:39;10;10;
49708;PMS5003;35601;55.902;13.606;2023-06-24T04:19:05;11;11;
49708;PMS5003;35601;55.902;13.606;2023-06-24T04:21:30;11;11;
49708;PMS5003;35601;55.902;13.606;2023-06-24T04:23:55;14;14;
49708;PMS5003;35601;55.902;13.606;2023-06-24T04:26:21;11;11;
49708;PMS5003;35601;55.902;13.606;2023-06-24T04:28:46;13;13;
49708;PMS5003;35601;55.902;13.606;2023-06-24T04:31:12;15;14;
49708;PMS5003;35601;55.902;13.606;2023-06-24T04:33:37;17;15;
49708;PMS5003;35601;55.902;13.606;2023-06-24T04:36:03;16;16;
49708;PMS5003;35601;55.902;13.606;2023-06-24T04:38:28;14;14;
49708;PMS5003;35601;55.902;13.606;2023-06-24T04:40:54;14;14;
49708;PMS5003;35601;55.902;13.606;2023-06-24T04:43:19;13;12;
49708;PMS5003;35601;55.902;13.606;2023-06-24T04:45:44;17;15;
49708;PMS5003;35601;55.902;13.606;2023-06-24T04:48:10;16;15;
49708;PMS5003;35601;55.902;13.606;2023-06-24T04:50:35;19;16;
49708;PMS5003;35601;55.902;13.606;2023-06-24T04:53:01;15;14;
49708;PMS5003;35601;55.902;13.606;2023-06-24T04:55:26;16;14;
49708;PMS5003;35601;55.902;13.606;2023-06-24T04:57:52;15;14;
49708;PMS5003;35601;55.902;13.606;2023-06-24T05:00:17;19;17;
49708;PMS5003;35601;55.902;13.606;2023-06-24T05:02:42;14;14;
49708;PMS5003;35601;55.902;13.606;2023-06-24T05:05:08;14;13;
49708;PMS5003;35601;55.902;13.606;2023-06-24T05:07:33;17;17;
49708;PMS5003;35601;55.902;13.606;2023-06-24T05:09:58;16;16;
49708;PMS5003;35601;55.902;13.606;2023-06-24T05:12:24;14;13;
49708;PMS5003;35601;55.902;13.606;2023-06-24T05:14:50;16;14;
49708;PMS5003;35601;55.902;13.606;2023-06-24T05:17:15;18;18;
49708;PMS5003;35601;55.902;13.606;2023-06-24T05:19:41;16;14;
49708;PMS5003;35601;55.902;13.606;2023-06-24T05:22:06;16;14;
49708;PMS5003;35601;55.902;13.606;2023-06-24T05:24:31;13;13;
49708;PMS5003;35601;55.902;13.606;2023-06-24T05:26:56;16;13;
49708;PMS5003;35601;55.902;13.606;2023-06-24T05:29:23;17;15;
49708;PMS5003;35601;55.902;13.606;2023-06-24T05:31:47;14;13;
49708;PMS5003;35601;55.902;13.606;2023-06-24T05:34:13;18;18;
49708;PMS5003;35601;55.902;13.606;2023-06-24T05:36:38;15;13;
49708;PMS5003;35601;55.902;13.606;2023-06-24T05:39:03;17;14;
49708;PMS5003;35601;55.902;13.606;2023-06-24T05:41:28;13;12;
49708;PMS5003;35601;55.902;13.606;2023-06-24T05:46:20;12;10;
49708;PMS5003;35601;55.902;13.606;2023-06-24T05:48:44;22;19;
49708;PMS5003;35601;55.902;13.606;2023-06-24T05:51:09;14;14;
49708;PMS5003;35601;55.902;13.606;2023-06-24T05:53:35;13;13;
49708;PMS5003;35601;55.902;13.606;2023-06-24T05:56:00;14;13;
49708;PMS5003;35601;55.902;13.606;2023-06-24T05:58:26;14;14;
49708;PMS5003;35601;55.902;13.606;2023-06-24T06:00:51;19;17;
49708;PMS5003;35601;55.902;13.606;2023-06-24T06:03:17;14;13;
49708;PMS5003;35601;55.902;13.606;2023-06-24T06:05:42;14;14;
49708;PMS5003;35601;55.902;13.606;2023-06-24T06:08:07;14;14;
49708;PMS5003;35601;55.902;13.606;2023-06-24T06:10:32;16;12;
49708;PMS5003;35601;55.902;13.606;2023-06-24T06:12:58;12;11;
49708;PMS5003;35601;55.902;13.606;2023-06-24T06:15:22;14;13;
49708;PMS5003;35601;55.902;13.606;2023-06-24T06:17:48;14;14;
49708;PMS5003;35601;55.902;13.606;2023-06-24T06:20:13;14;14;
49708;PMS5003;35601;55.902;13.606;2023-06-24T06:22:38;15;14;
49708;PMS5003;35601;55.902;13.606;2023-06-24T06:25:04;14;13;
49708;PMS5003;35601;55.902;13.606;2023-06-24T06:27:29;14;14;
49708;PMS5003;35601;55.902;13.606;2023-06-24T06:29:54;16;15;
49708;PMS5003;35601;55.902;13.606;2023-06-24T06:32:19;11;11;
49708;PMS5003;35601;55.902;13.606;2023-06-24T06:34:44;14;12;
49708;PMS5003;35601;55.902;13.606;2023-06-24T06:37:11;12;12;
49708;PMS5003;35601;55.902;13.606;2023-06-24T06:39:35;17;14;
49708;PMS5003;35601;55.902;13.606;2023-06-24T06:42:01;16;16;
49708;PMS5003;35601;55.902;13.606;2023-06-24T06:44:26;16;12;
49708;PMS5003;35601;55.902;13.606;2023-06-24T06:46:51;11;11;
49708;PMS5003;35601;55.902;13.606;2023-06-24T06:49:17;17;12;
49708;PMS5003;35601;55.902;13.606;2023-06-24T06:51:42;12;12;
49708;PMS5003;35601;55.902;13.606;2023-06-24T06:54:07;13;10;
49708;PMS5003;35601;55.902;13.606;2023-06-24T06:56:33;12;12;
49708;PMS5003;35601;55.902;13.606;2023-06-24T06:58:58;15;14;
49708;PMS5003;35601;55.902;13.606;2023-06-24T07:01:24;13;12;
49708;PMS5003;35601;55.902;13.606;2023-06-24T07:03:50;14;12;
49708;PMS5003;35601;55.902;13.606;2023-06-24T07:06:17;14;12;
49708;PMS5003;35601;55.902;13.606;2023-06-24T07:08:41;14;13;
49708;PMS5003;35601;55.902;13.606;2023-06-24T07:11:06;14;13;
49708;PMS5003;35601;55.902;13.606;2023-06-24T07:13:33;11;10;
49708;PMS5003;35601;55.902;13.606;2023-06-24T07:15:57;13;12;
49708;PMS5003;35601;55.902;13.606;2023-06-24T07:18:24;12;12;
49708;PMS5003;35601;55.902;13.606;2023-06-24T07:20:48;13;13;
49708;PMS5003;35601;55.902;13.606;2023-06-24T07:23:13;12;12;
49708;PMS5003;35601;55.902;13.606;2023-06-24T07:25:39;14;13;
49708;PMS5003;35601;55.902;13.606;2023-06-24T07:28:06;10;10;
49708;PMS5003;35601;55.902;13.606;2023-06-24T07:30:29;12;10;
49708;PMS5003;35601;55.902;13.606;2023-06-24T07:32:54;10;10;
49708;PMS5003;35601;55.902;13.606;2023-06-24T07:35:19;10;10;
49708;PMS5003;35601;55.902;13.606;2023-06-24T07:37:46;13;11;
49708;PMS5003;35601;55.902;13.606;2023-06-24T07:40:10;10;10;
49708;PMS5003;35601;55.902;13.606;2023-06-24T07:42:36;11;10;
49708;PMS5003;35601;55.902;13.606;2023-06-24T07:45:00;15;11;
49708;PMS5003;35601;55.902;13.606;2023-06-24T07:47:29;12;11;
49708;PMS5003;35601;55.902;13.606;2023-06-24T07:49:50;11;10;
49708;PMS5003;35601;55.902;13.606;2023-06-24T07:52:16;11;10;
49708;PMS5003;35601;55.902;13.606;2023-06-24T07:54:42;11;10;
49708;PMS5003;35601;55.902;13.606;2023-06-24T07:57:08;13;13;
49708;PMS5003;35601;55.902;13.606;2023-06-24T07:59:33;9;9;
49708;PMS5003;35601;55.902;13.606;2023-06-24T08:01:59;10;10;
49708;PMS5003;35601;55.902;13.606;2023-06-24T08:04:24;10;10;
49708;PMS5003;35601;55.902;13.606;2023-06-24T08:06:50;11;9;
49708;PMS5003;35601;55.902;13.606;2023-06-24T08:09:15;9;9;
49708;PMS5003;35601;55.902;13.606;2023-06-24T08:11:40;13;9;
49708;PMS5003;35601;55.902;13.606;2023-06-24T08:14:05;8;8;
49708;PMS5003;35601;55.902;13.606;2023-06-24T08:16:30;10;9;
49708;PMS5003;35601;55.902;13.606;2023-06-24T08:18:55;12;12;
49708;PMS5003;35601;55.902;13.606;2023-06-24T08:21:20;10;10;
49708;PMS5003;35601;55.902;13.606;2023-06-24T08:23:46;10;10;
49708;PMS5003;35601;55.902;13.606;2023-06-24T08:26:11;12;11;
49708;PMS5003;35601;55.902;13.606;2023-06-24T08:28:36;11;11;
49708;PMS5003;35601;55.902;13.606;2023-06-24T08:31:01;10;10;
49708;PMS5003;35601;55.902;13.606;2023-06-24T08:33:27;11;11;
49708;PMS5003;35601;55.902;13.606;2023-06-24T08:35:54;12;11;
49708;PMS5003;35601;55.902;13.606;2023-06-24T08:38:18;8;8;
49708;PMS5003;35601;55.902;13.606;2023-06-24T08:40:43;12;10;
49708;PMS5003;35601;55.902;13.606;2023-06-24T08:43:10;7;7;
49708;PMS5003;35601;55.902;13.606;2023-06-24T08:45:33;10;9;
49708;PMS5003;35601;55.902;13.606;2023-06-24T08:47:58;13;11;
49708;PMS5003;35601;55.902;13.606;2023-06-24T08:50:23;12;9;
49708;PMS5003;35601;55.902;13.606;2023-06-24T08:52:50;10;9;
49708;PMS5003;35601;55.902;13.606;2023-06-24T08:55:16;9;9;
49708;PMS5003;35601;55.902;13.606;2023-06-24T08:57:39;8;8;
49708;PMS5003;35601;55.902;13.606;2023-06-24T09:00:05;8;8;
49708;PMS5003;35601;55.902;13.606;2023-06-24T09:02:30;8;7;
49708;PMS5003;35601;55.902;13.606;2023-06-24T09:04:55;9;9;
49708;PMS5003;35601;55.902;13.606;2023-06-24T09:07:26;9;9;
49708;PMS5003;35601;55.902;13.606;2023-06-24T09:09:47;8;8;
49708;PMS5003;35601;55.902;13.606;2023-06-24T09:12:13;9;8;
49708;PMS5003;35601;55.902;13.606;2023-06-24T09:14:37;10;10;
49708;PMS5003;35601;55.902;13.606;2023-06-24T09:17:02;10;9;
49708;PMS5003;35601;55.902;13.606;2023-06-24T09:19:28;10;10;
49708;PMS5003;35601;55.902;13.606;2023-06-24T09:21:53;9;9;
49708;PMS5003;35601;55.902;13.606;2023-06-24T09:24:20;15;14;
49708;PMS5003;35601;55.902;13.606;2023-06-24T09:26:44;12;10;
49708;PMS5003;35601;55.902;13.606;2023-06-24T09:29:08;11;11;
49708;PMS5003;35601;55.902;13.606;2023-06-24T09:31:34;12;10;
49708;PMS5003;35601;55.902;13.606;2023-06-24T09:33:58;11;10;
49708;PMS5003;35601;55.902;13.606;2023-06-24T09:36:23;9;9;
49708;PMS5003;35601;55.902;13.606;2023-06-24T09:38:48;8;8;
49708;PMS5003;35601;55.902;13.606;2023-06-24T09:41:13;9;9;
49708;PMS5003;35601;55.902;13.606;2023-06-24T09:43:38;12;9;
49708;PMS5003;35601;55.902;13.606;2023-06-24T09:46:04;7;7;
49708;PMS5003;35601;55.902;13.606;2023-06-24T09:48:29;9;9;
49708;PMS5003;35601;55.902;13.606;2023-06-24T09:50:54;7;7;
49708;PMS5003;35601;55.902;13.606;2023-06-24T09:53:20;7;7;
49708;PMS5003;35601;55.902;13.606;2023-06-24T09:55:45;10;7;
49708;PMS5003;35601;55.902;13.606;2023-06-24T09:58:10;9;9;
49708;PMS5003;35601;55.902;13.606;2023-06-24T10:00:36;8;8;
49708;PMS5003;35601;55.902;13.606;2023-06-24T10:03:00;9;8;
49708;PMS5003;35601;55.902;13.606;2023-06-24T10:05:27;8;6;
49708;PMS5003;35601;55.902;13.606;2023-06-24T10:07:51;8;7;
49708;PMS5003;35601;55.902;13.606;2023-06-24T10:10:16;5;5;
49708;PMS5003;35601;55.902;13.606;2023-06-24T10:12:43;7;7;
49708;PMS5003;35601;55.902;13.606;2023-06-24T10:15:08;8;8;
49708;PMS5003;35601;55.902;13.606;2023-06-24T10:17:31;9;8;
49708;PMS5003;35601;55.902;13.606;2023-06-24T10:22:22;8;7;
49708;PMS5003;35601;55.902;13.606;2023-06-24T10:24:47;8;8;
49708;PMS5003;35601;55.902;13.606;2023-06-24T10:27:13;10;8;
49708;PMS5003;35601;55.902;13.606;2023-06-24T10:29:38;5;5;
49708;PMS5003;35601;55.902;13.606;2023-06-24T10:32:04;7;7;
49708;PMS5003;35601;55.902;13.606;2023-06-24T10:34:28;6;6;
49708;PMS5003;35601;55.902;13.606;2023-06-24T10:36:53;8;8;
49708;PMS5003;35601;55.902;13.606;2023-06-24T10:41:42;9;9;
49708;PMS5003;35601;55.902;13.606;2023-06-24T10:46:32;10;9;
49708;PMS5003;35601;55.902;13.606;2023-06-24T10:48:58;10;10;
49708;PMS5003;35601;55.902;13.606;2023-06-24T10:51:23;9;9;
49708;PMS5003;35601;55.902;13.606;2023-06-24T10:53:48;9;8;
49708;PMS5003;35601;55.902;13.606;2023-06-24T10:56:13;7;7;
49708;PMS5003;35601;55.902;13.606;2023-06-24T10:58:38;8;8;
49708;PMS5003;35601;55.902;13.606;2023-06-24T11:01:06;7;7;
49708;PMS5003;35601;55.902;13.606;2023-06-24T11:03:33;13;8;
49708;PMS5003;35601;55.902;13.606;2023-06-24T11:05:54;7;7;
49708;PMS5003;35601;55.902;13.606;2023-06-24T11:08:20;8;8;
49708;PMS5003;35601;55.902;13.606;2023-06-24T11:10:45;9;9;
49708;PMS5003;35601;55.902;13.606;2023-06-24T11:13:11;9;9;
49708;PMS5003;35601;55.902;13.606;2023-06-24T11:15:36;7;7;
49708;PMS5003;35601;55.902;13.606;2023-06-24T11:18:01;10;10;
49708;PMS5003;35601;55.902;13.606;2023-06-24T11:20:28;11;11;
49708;PMS5003;35601;55.902;13.606;2023-06-24T11:22:51;7;7;
49708;PMS5003;35601;55.902;13.606;2023-06-24T11:25:16;10;8;
49708;PMS5003;35601;55.902;13.606;2023-06-24T11:27:42;9;9;
49708;PMS5003;35601;55.902;13.606;2023-06-24T11:30:07;7;7;
49708;PMS5003;35601;55.902;13.606;2023-06-24T11:32:36;12;10;
49708;PMS5003;35601;55.902;13.606;2023-06-24T11:34:56;10;8;
49708;PMS5003;35601;55.902;13.606;2023-06-24T11:37:30;6;6;
49708;PMS5003;35601;55.902;13.606;2023-06-24T11:42:13;6;6;
49708;PMS5003;35601;55.902;13.606;2023-06-24T11:44:41;7;6;
49708;PMS5003;35601;55.902;13.606;2023-06-24T11:47:04;10;9;
49708;PMS5003;35601;55.902;13.606;2023-06-24T11:49:29;7;7;
49708;PMS5003;35601;55.902;13.606;2023-06-24T11:51:54;9;8;
49708;PMS5003;35601;55.902;13.606;2023-06-24T11:54:18;8;8;
49708;PMS5003;35601;55.902;13.606;2023-06-24T11:56:44;6;6;
49708;PMS5003;35601;55.902;13.606;2023-06-24T11:59:15;5;5;
49708;PMS5003;35601;55.902;13.606;2023-06-24T12:01:34;11;9;
49708;PMS5003;35601;55.902;13.606;2023-06-24T12:03:59;8;8;
49708;PMS5003;35601;55.902;13.606;2023-06-24T12:06:22;7;7;
49708;PMS5003;35601;55.902;13.606;2023-06-24T12:08:48;9;8;
49708;PMS5003;35601;55.902;13.606;2023-06-24T12:11:18;10;8;
49708;PMS5003;35601;55.902;13.606;2023-06-24T12:13:38;7;7;
49708;PMS5003;35601;55.902;13.606;2023-06-24T12:16:04;9;9;
49708;PMS5003;35601;55.902;13.606;2023-06-24T12:18:28;7;7;
49708;PMS5003;35601;55.902;13.606;2023-06-24T12:20:54;8;8;
49708;PMS5003;35601;55.902;13.606;2023-06-24T12:23:19;9;9;
49708;PMS5003;35601;55.902;13.606;2023-06-24T12:25:44;8;6;
49708;PMS5003;35601;55.902;13.606;2023-06-24T12:28:10;9;9;
49708;PMS5003;35601;55.902;13.606;2023-06-24T12:30:35;9;9;
49708;PMS5003;35601;55.902;13.606;2023-06-24T12:33:00;10;10;
49708;PMS5003;35601;55.902;13.606;2023-06-24T12:35:26;9;9;
49708;PMS5003;35601;55.902;13.606;2023-06-24T12:37:51;11;10;
49708;PMS5003;35601;55.902;13.606;2023-06-24T12:40:16;9;9;
49708;PMS5003;35601;55.902;13.606;2023-06-24T12:42:41;9;9;
49708;PMS5003;35601;55.902;13.606;2023-06-24T12:45:07;14;11;
49708;PMS5003;35601;55.902;13.606;2023-06-24T12:47:31;8;8;
49708;PMS5003;35601;55.902;13.606;2023-06-24T12:49:58;12;12;
49708;PMS5003;35601;55.902;13.606;2023-06-24T12:52:22;9;9;
49708;PMS5003;35601;55.902;13.606;2023-06-24T12:54:47;10;9;
49708;PMS5003;35601;55.902;13.606;2023-06-24T12:57:12;8;7;
49708;PMS5003;35601;55.902;13.606;2023-06-24T12:59:38;8;7;
49708;PMS5003;35601;55.902;13.606;2023-06-24T13:02:05;9;9;
49708;PMS5003;35601;55.902;13.606;2023-06-24T13:04:28;10;10;
49708;PMS5003;35601;55.902;13.606;2023-06-24T13:06:53;9;9;
49708;PMS5003;35601;55.902;13.606;2023-06-24T13:09:19;7;7;
49708;PMS5003;35601;55.902;13.606;2023-06-24T13:11:43;7;7;
49708;PMS5003;35601;55.902;13.606;2023-06-24T13:14:09;13;10;
49708;PMS5003;35601;55.902;13.606;2023-06-24T13:16:34;8;8;
49708;PMS5003;35601;55.902;13.606;2023-06-24T13:18:59;9;9;
49708;PMS5003;35601;55.902;13.606;2023-06-24T13:21:24;10;9;
49708;PMS5003;35601;55.902;13.606;2023-06-24T13:23:50;9;8;
49708;PMS5003;35601;55.902;13.606;2023-06-24T13:26:15;8;7;
49708;PMS5003;35601;55.902;13.606;2023-06-24T13:28:40;9;9;
49708;PMS5003;35601;55.902;13.606;2023-06-24T13:31:05;8;8;
49708;PMS5003;35601;55.902;13.606;2023-06-24T13:33:31;13;10;
49708;PMS5003;35601;55.902;13.606;2023-06-24T13:35:56;8;7;
49708;PMS5003;35601;55.902;13.606;2023-06-24T13:38:21;8;8;
49708;PMS5003;35601;55.902;13.606;2023-06-24T13:40:46;8;8;
49708;PMS5003;35601;55.902;13.606;2023-06-24T13:43:11;6;6;
49708;PMS5003;35601;55.902;13.606;2023-06-24T13:45:36;8;6;
49708;PMS5003;35601;55.902;13.606;2023-06-24T13:48:02;6;6;
49708;PMS5003;35601;55.902;13.606;2023-06-24T13:50:27;6;6;
49708;PMS5003;35601;55.902;13.606;2023-06-24T13:52:52;7;7;
49708;PMS5003;35601;55.902;13.606;2023-06-24T13:55:17;6;6;
49708;PMS5003;35601;55.902;13.606;2023-06-24T13:57:42;6;6;
49708;PMS5003;35601;55.902;13.606;2023-06-24T14:00:08;6;6;
49708;PMS5003;35601;55.902;13.606;2023-06-24T14:02:33;7;6;
49708;PMS5003;35601;55.902;13.606;2023-06-24T14:04:58;9;9;
49708;PMS5003;35601;55.902;13.606;2023-06-24T14:07:23;8;6;
49708;PMS5003;35601;55.902;13.606;2023-06-24T14:09:48;8;8;
49708;PMS5003;35601;55.902;13.606;2023-06-24T14:12:14;7;7;
49708;PMS5003;35601;55.902;13.606;2023-06-24T14:14:38;8;7;
49708;PMS5003;35601;55.902;13.606;2023-06-24T14:17:03;10;10;
49708;PMS5003;35601;55.902;13.606;2023-06-24T14:19:29;7;7;
49708;PMS5003;35601;55.902;13.606;2023-06-24T14:21:54;6;6;
49708;PMS5003;35601;55.902;13.606;2023-06-24T14:24:19;8;8;
49708;PMS5003;35601;55.902;13.606;2023-06-24T14:26:44;6;6;
49708;PMS5003;35601;55.902;13.606;2023-06-24T14:29:09;7;7;
49708;PMS5003;35601;55.902;13.606;2023-06-24T14:31:34;9;7;
49708;PMS5003;35601;55.902;13.606;2023-06-24T14:34:00;8;8;
49708;PMS5003;35601;55.902;13.606;2023-06-24T14:36:25;8;8;
49708;PMS5003;35601;55.902;13.606;2023-06-24T14:38:50;5;5;
49708;PMS5003;35601;55.902;13.606;2023-06-24T14:41:15;7;7;
49708;PMS5003;35601;55.902;13.606;2023-06-24T14:43:40;6;6;
49708;PMS5003;35601;55.902;13.606;2023-06-24T14:46:05;6;6;
49708;PMS5003;35601;55.902;13.606;2023-06-24T14:48:31;15;14;
49708;PMS5003;35601;55.902;13.606;2023-06-24T14:50:56;15;14;
49708;PMS5003;35601;55.902;13.606;2023-06-24T14:53:21;9;9;
49708;PMS5003;35601;55.902;13.606;2023-06-24T14:55:46;6;6;
49708;PMS5003;35601;55.902;13.606;2023-06-24T14:58:12;8;6;
49708;PMS5003;35601;55.902;13.606;2023-06-24T15:00:37;6;5;
49708;PMS5003;35601;55.902;13.606;2023-06-24T15:03:02;6;6;
49708;PMS5003;35601;55.902;13.606;2023-06-24T15:05:27;7;6;
49708;PMS5003;35601;55.902;13.606;2023-06-24T15:07:52;6;6;
49708;PMS5003;35601;55.902;13.606;2023-06-24T15:10:17;4;4;
49708;PMS5003;35601;55.902;13.606;2023-06-24T15:12:43;7;5;
49708;PMS5003;35601;55.902;13.606;2023-06-24T15:15:08;9;6;
49708;PMS5003;35601;55.902;13.606;2023-06-24T15:17:33;5;5;
49708;PMS5003;35601;55.902;13.606;2023-06-24T15:19:58;5;5;
49708;PMS5003;35601;55.902;13.606;2023-06-24T15:22:23;8;7;
49708;PMS5003;35601;55.902;13.606;2023-06-24T15:24:48;5;4;
49708;PMS5003;35601;55.902;13.606;2023-06-24T15:27:14;7;7;
49708;PMS5003;35601;55.902;13.606;2023-06-24T15:29:38;7;7;
49708;PMS5003;35601;55.902;13.606;2023-06-24T15:32:04;5;5;
49708;PMS5003;35601;55.902;13.606;2023-06-24T15:34:28;6;5;
49708;PMS5003;35601;55.902;13.606;2023-06-24T15:36:54;4;4;
49708;PMS5003;35601;55.902;13.606;2023-06-24T15:39:19;6;6;
49708;PMS5003;35601;55.902;13.606;2023-06-24T15:41:46;5;5;
49708;PMS5003;35601;55.902;13.606;2023-06-24T15:44:09;5;5;
49708;PMS5003;35601;55.902;13.606;2023-06-24T15:46:34;7;7;
49708;PMS5003;35601;55.902;13.606;2023-06-24T15:48:59;8;6;
49708;PMS5003;35601;55.902;13.606;2023-06-24T15:51:26;7;7;
49708;PMS5003;35601;55.902;13.606;2023-06-24T15:53:49;4;4;
49708;PMS5003;35601;55.902;13.606;2023-06-24T15:56:14;7;7;
49708;PMS5003;35601;55.902;13.606;2023-06-24T15:58:40;6;5;
49708;PMS5003;35601;55.902;13.606;2023-06-24T16:01:05;8;6;
49708;PMS5003;35601;55.902;13.606;2023-06-24T16:03:30;7;7;
49708;PMS5003;35601;55.902;13.606;2023-06-24T16:05:55;4;4;
49708;PMS5003;35601;55.902;13.606;2023-06-24T16:08:20;6;5;
49708;PMS5003;35601;55.902;13.606;2023-06-24T16:10:47;7;6;
49708;PMS5003;35601;55.902;13.606;2023-06-24T16:13:10;7;7;
49708;PMS5003;35601;55.902;13.606;2023-06-24T16:15:35;6;5;